createdAt,value
2023-01-30T00:01:15.966Z,28.33
2023-01-30T00:03:43.560Z,29.57
2023-01-30T00:06:13.036Z,32.17
2023-01-30T00:08:40.790Z,30.20
2023-01-30T00:11:10.235Z,32.17
2023-01-30T00:13:38.485Z,32.57
2023-01-30T00:16:06.734Z,33.43
2023-01-30T00:18:34.218Z,34.37
2023-01-30T00:21:03.977Z,31.30
2023-01-30T00:23:34.212Z,31.13
2023-01-30T00:26:02.277Z,32.90
2023-01-30T00:28:29.839Z,31.77
2023-01-30T00:30:57.475Z,26.87
2023-01-30T00:33:26.921Z,21.73
2023-01-30T00:35:56.328Z,29.07
2023-01-30T00:38:24.759Z,30.77
2023-01-30T00:40:53.588Z,29.37
2023-01-30T00:43:39.692Z,28.37
2023-01-30T00:46:32.362Z,25.70
2023-01-30T00:48:59.823Z,20.27
2023-01-30T00:51:27.352Z,25.27
2023-01-30T00:53:54.853Z,29.13
2023-01-30T00:56:23.692Z,25.77
2023-01-30T00:58:51.134Z,24.53
2023-01-30T01:01:18.619Z,26.07
2023-01-30T01:03:46.222Z,25.43
2023-01-30T01:06:13.820Z,27.40
2023-01-30T01:08:41.280Z,24.83
2023-01-30T01:11:08.818Z,28.73
2023-01-30T01:13:37.610Z,26.83
2023-01-30T01:16:05.557Z,26.60
2023-01-30T01:18:33.661Z,23.43
2023-01-30T01:21:01.126Z,26.33
2023-01-30T01:23:28.641Z,26.10
2023-01-30T01:25:56.104Z,28.00
2023-01-30T01:28:23.569Z,24.87
2023-01-30T01:30:52.491Z,24.77
2023-01-30T01:33:19.955Z,27.80
2023-01-30T01:35:47.980Z,23.43
2023-01-30T01:38:15.480Z,25.10
2023-01-30T01:41:06.275Z,24.30
2023-01-30T01:43:36.282Z,21.40
2023-01-30T01:46:12.561Z,24.27
2023-01-30T01:48:44.514Z,19.53
2023-01-30T01:51:17.214Z,18.10
2023-01-30T01:53:49.979Z,20.73
2023-01-30T01:56:20.352Z,25.37
2023-01-30T01:58:52.547Z,24.60
2023-01-30T02:01:22.028Z,22.00
2023-01-30T02:03:53.469Z,23.40
2023-01-30T02:06:22.768Z,21.40
2023-01-30T02:08:54.184Z,23.63
2023-01-30T02:11:30.380Z,23.73
2023-01-30T02:13:58.832Z,16.47
2023-01-30T02:16:27.679Z,25.90
2023-01-30T02:18:55.784Z,23.67
2023-01-30T02:22:07.642Z,25.93
2023-01-30T02:24:48.793Z,32.47
2023-01-30T02:27:26.154Z,43.30
2023-01-30T02:30:57.867Z,27.80
2023-01-30T02:33:34.550Z,22.27
2023-01-30T02:36:09.911Z,22.83
2023-01-30T02:38:46.780Z,23.73
2023-01-30T02:41:26.056Z,23.97
2023-01-30T02:44:04.120Z,20.00
2023-01-30T02:46:44.127Z,26.20
2023-01-30T02:49:16.563Z,21.87
2023-01-30T02:51:45.764Z,20.97
2023-01-30T02:54:13.903Z,18.17
2023-01-30T02:56:46.684Z,19.83
2023-01-30T02:59:17.454Z,21.93
2023-01-30T03:02:26.739Z,15.70
2023-01-30T03:05:13.057Z,20.30
2023-01-30T03:07:48.074Z,18.53
2023-01-30T03:10:24.863Z,20.10
2023-01-30T03:12:59.967Z,19.37
2023-01-30T03:15:34.685Z,18.93
2023-01-30T03:18:04.304Z,19.17
2023-01-30T03:20:32.691Z,22.53
2023-01-30T03:23:00.463Z,19.23
2023-01-30T03:25:27.994Z,21.57
2023-01-30T03:27:56.758Z,19.73
2023-01-30T03:30:26.569Z,21.93
2023-01-30T03:32:54.063Z,21.33
2023-01-30T03:35:22.928Z,20.17
2023-01-30T03:37:50.719Z,19.77
2023-01-30T03:40:18.896Z,21.77
2023-01-30T03:42:46.413Z,20.97
2023-01-30T03:45:14.017Z,20.50
2023-01-30T03:47:41.471Z,20.80
2023-01-30T03:50:10.551Z,20.03
2023-01-30T03:52:39.341Z,19.97
2023-01-30T03:55:07.853Z,18.93
2023-01-30T03:57:35.296Z,13.47
2023-01-30T04:00:02.829Z,19.27
2023-01-30T04:02:30.326Z,16.70
2023-01-30T04:04:57.841Z,19.13
2023-01-30T04:07:25.333Z,16.57
2023-01-30T04:09:54.217Z,15.30
2023-01-30T04:12:21.689Z,19.13
2023-01-30T04:14:49.251Z,17.53
2023-01-30T04:17:16.718Z,18.80
2023-01-30T04:19:44.245Z,17.27
2023-01-30T04:22:11.728Z,17.50
2023-01-30T04:24:39.198Z,15.47
2023-01-30T04:27:09.196Z,15.83
2023-01-30T04:29:36.732Z,17.30
2023-01-30T04:32:04.410Z,16.23
2023-01-30T04:34:31.865Z,17.17
2023-01-30T04:36:59.339Z,16.27
2023-01-30T04:39:26.817Z,18.67
2023-01-30T04:41:54.890Z,20.47
2023-01-30T04:44:23.708Z,17.43
2023-01-30T04:46:51.166Z,16.20
2023-01-30T04:49:18.639Z,14.50
2023-01-30T04:51:46.155Z,14.43
2023-01-30T04:54:13.801Z,14.27
2023-01-30T04:56:41.292Z,15.87
2023-01-30T04:59:08.767Z,12.27
2023-01-30T05:01:38.944Z,14.80
2023-01-30T05:04:07.563Z,16.10
2023-01-30T05:06:36.531Z,14.60
2023-01-30T05:09:05.057Z,14.23
2023-01-30T05:11:33.138Z,18.53
2023-01-30T05:14:00.951Z,13.03
2023-01-30T05:16:28.697Z,18.70
2023-01-30T05:18:57.585Z,16.23
2023-01-30T05:21:27.848Z,14.13
2023-01-30T05:23:56.442Z,16.87
2023-01-30T05:26:24.534Z,16.07
2023-01-30T05:28:53.140Z,16.17
2023-01-30T05:31:20.673Z,17.17
2023-01-30T05:33:50.367Z,16.87
2023-01-30T05:36:21.075Z,15.57
2023-01-30T05:38:48.526Z,15.90
2023-01-30T05:41:17.924Z,15.73
2023-01-30T05:43:45.460Z,15.50
2023-01-30T05:46:14.192Z,16.73
2023-01-30T05:48:41.728Z,16.67
2023-01-30T05:51:17.186Z,15.23
2023-01-30T05:53:46.317Z,15.57
2023-01-30T05:56:13.887Z,15.77
2023-01-30T05:58:41.363Z,15.67
2023-01-30T06:01:12.663Z,15.53
2023-01-30T06:03:40.253Z,14.17
2023-01-30T06:06:08.434Z,16.43
2023-01-30T06:08:35.900Z,18.63
2023-01-30T06:11:07.187Z,18.43
2023-01-30T06:13:35.098Z,18.33
2023-01-30T06:16:02.616Z,16.63
2023-01-30T06:18:30.087Z,16.67
2023-01-30T06:20:57.686Z,16.43
2023-01-30T06:23:25.345Z,15.13
2023-01-30T06:25:53.983Z,16.30
2023-01-30T06:28:24.232Z,16.27
2023-01-30T06:30:52.363Z,16.33
2023-01-30T06:33:20.048Z,15.53
2023-01-30T06:35:50.137Z,14.60
2023-01-30T06:38:18.025Z,15.30
2023-01-30T06:40:46.758Z,14.47
2023-01-30T06:43:14.936Z,13.63
2023-01-30T06:45:44.332Z,14.73
2023-01-30T06:48:12.127Z,13.03
2023-01-30T06:50:39.615Z,14.47
2023-01-30T06:53:08.685Z,13.57
2023-01-30T06:55:36.958Z,14.60
2023-01-30T06:58:06.936Z,13.57
2023-01-30T07:00:35.354Z,13.20
2023-01-30T07:03:04.176Z,13.47
2023-01-30T07:05:31.810Z,14.17
2023-01-30T07:07:59.303Z,13.63
2023-01-30T07:10:26.988Z,13.07
2023-01-30T07:12:54.451Z,14.03
2023-01-30T07:15:21.947Z,15.27
2023-01-30T07:17:49.793Z,13.13
2023-01-30T07:20:19.504Z,10.70
2023-01-30T07:22:50.910Z,13.87
2023-01-30T07:25:18.941Z,13.00
2023-01-30T07:27:52.031Z,13.60
2023-01-30T07:30:20.115Z,13.70
2023-01-30T07:32:51.038Z,13.27
2023-01-30T07:35:20.252Z,12.07
2023-01-30T07:37:48.587Z,12.90
2023-01-30T07:40:17.029Z,14.57
2023-01-30T07:42:44.533Z,11.47
2023-01-30T07:45:12.718Z,12.83
2023-01-30T07:47:40.168Z,11.87
2023-01-30T07:50:09.084Z,13.70
2023-01-30T07:52:37.879Z,13.93
2023-01-30T07:55:05.950Z,13.13
2023-01-30T07:57:33.411Z,11.00
2023-01-30T08:00:00.905Z,16.13
2023-01-30T08:02:28.351Z,14.13
2023-01-30T08:04:55.873Z,11.23
2023-01-30T08:07:23.448Z,16.40
2023-01-30T08:09:52.265Z,14.93
2023-01-30T08:12:19.727Z,14.97
2023-01-30T08:14:47.397Z,14.00
2023-01-30T08:17:14.972Z,12.10
2023-01-30T08:19:42.437Z,9.37
2023-01-30T08:22:09.885Z,13.50
2023-01-30T08:24:37.360Z,11.30
2023-01-30T08:27:06.223Z,13.87
2023-01-30T08:29:33.799Z,11.73
2023-01-30T08:32:02.206Z,12.70
2023-01-30T08:34:29.700Z,10.13
2023-01-30T08:36:57.169Z,11.30
2023-01-30T08:39:24.650Z,9.67
2023-01-30T08:41:52.134Z,11.53
2023-01-30T08:44:20.969Z,10.80
2023-01-30T08:46:48.538Z,11.03
2023-01-30T08:49:16.374Z,12.80
2023-01-30T08:51:43.808Z,10.17
2023-01-30T08:54:11.257Z,10.77
2023-01-30T08:56:38.733Z,14.33
2023-01-30T08:59:06.883Z,12.47
2023-01-30T09:01:37.218Z,10.73
2023-01-30T09:04:04.725Z,9.63
2023-01-30T09:06:32.223Z,11.37
2023-01-30T09:08:59.957Z,11.53
2023-01-30T09:11:27.764Z,9.87
2023-01-30T09:13:55.238Z,10.27
2023-01-30T09:16:22.775Z,10.57
2023-01-30T09:18:51.661Z,11.10
2023-01-30T09:21:19.373Z,7.40
2023-01-30T09:23:46.841Z,9.00
2023-01-30T09:26:14.351Z,7.40
2023-01-30T09:28:41.915Z,5.67
2023-01-30T09:31:09.452Z,7.20
2023-01-30T09:33:36.943Z,6.60
2023-01-30T09:36:06.724Z,6.30
2023-01-30T09:38:34.169Z,6.93
2023-01-30T09:41:14.632Z,8.23
2023-01-30T09:43:55.940Z,8.90
2023-01-30T09:46:35.827Z,7.17
2023-01-30T09:49:18.512Z,8.53
2023-01-30T09:52:02.201Z,8.10
2023-01-30T09:54:32.041Z,7.93
2023-01-30T09:57:20.570Z,7.97
2023-01-30T10:00:00.682Z,9.30
2023-01-30T10:02:38.150Z,13.13
2023-01-30T10:05:06.356Z,11.03
2023-01-30T10:07:50.026Z,8.20
2023-01-30T10:10:25.547Z,9.60
2023-01-30T10:13:04.984Z,12.10
2023-01-30T10:15:45.812Z,10.77
2023-01-30T10:18:35.230Z,12.13
2023-01-30T10:21:16.775Z,7.60
2023-01-30T10:24:02.440Z,11.13
2023-01-30T10:26:31.267Z,8.67
2023-01-30T10:29:07.666Z,11.13
2023-01-30T10:31:42.051Z,10.23
2023-01-30T10:34:15.496Z,9.17
2023-01-30T10:36:47.754Z,12.83
2023-01-30T10:39:27.075Z,11.87
2023-01-30T10:41:59.962Z,8.80
2023-01-30T10:44:27.427Z,10.60
2023-01-30T10:47:23.037Z,11.90
2023-01-30T10:49:53.192Z,9.20
2023-01-30T10:52:35.956Z,8.80
2023-01-30T10:55:13.364Z,10.13
2023-01-30T10:57:53.549Z,10.47
2023-01-30T11:00:29.621Z,8.80
2023-01-30T11:03:10.645Z,7.17
2023-01-30T11:05:45.948Z,10.07
2023-01-30T11:08:20.844Z,10.87
2023-01-30T11:10:50.112Z,7.70
2023-01-30T11:13:19.916Z,8.30
2023-01-30T11:15:50.820Z,9.77
2023-01-30T11:19:06.667Z,11.73
2023-01-30T11:21:11.322Z,8.20
2023-01-30T11:23:43.032Z,12.33
2023-01-30T11:26:20.972Z,8.57
2023-01-30T11:28:49.153Z,12.40
2023-01-30T11:31:38.989Z,12.37
2023-01-30T11:34:16.448Z,9.63
2023-01-30T11:36:47.046Z,13.77
2023-01-30T11:39:29.414Z,10.90
2023-01-30T11:42:05.702Z,13.27
2023-01-30T11:44:35.113Z,8.30
2023-01-30T11:47:04.913Z,10.57
2023-01-30T11:49:45.899Z,8.63
2023-01-30T11:52:18.684Z,10.50
2023-01-30T11:54:47.977Z,9.97
2023-01-30T11:57:19.923Z,10.17
2023-01-30T11:59:50.429Z,13.57
2023-01-30T12:02:24.360Z,8.17
2023-01-30T12:04:55.579Z,7.10
2023-01-30T12:07:25.530Z,10.17
2023-01-30T12:09:54.169Z,8.50
2023-01-30T12:12:30.409Z,9.33
2023-01-30T12:15:05.940Z,9.73
2023-01-30T12:17:40.421Z,11.13
2023-01-30T12:20:18.808Z,13.53
2023-01-30T12:22:53.863Z,10.67
2023-01-30T12:25:25.220Z,9.00
2023-01-30T12:30:33.474Z,10.23
2023-01-30T12:35:48.304Z,9.90
2023-01-30T12:38:32.536Z,7.60
2023-01-30T12:41:13.252Z,12.17
2023-01-30T12:43:54.432Z,32.10
2023-01-30T12:46:38.479Z,25.63
2023-01-30T12:49:31.513Z,23.03
2023-01-30T12:52:13.999Z,8.73
2023-01-30T12:54:51.727Z,5.33
2023-01-30T12:57:27.306Z,7.63
2023-01-30T13:00:14.521Z,8.23
2023-01-30T13:02:59.198Z,22.17
2023-01-30T13:05:38.712Z,13.70
2023-01-30T13:08:24.911Z,14.70
2023-01-30T13:11:00.986Z,24.43
2023-01-30T13:13:36.074Z,12.60
2023-01-30T13:16:15.496Z,14.77
2023-01-30T13:18:50.375Z,11.57
2023-01-30T13:21:24.496Z,5.80
2023-01-30T13:24:05.449Z,5.20
2023-01-30T13:26:36.026Z,42.57
2023-01-30T13:29:12.961Z,14.47
2023-01-30T13:31:51.659Z,18.23
2023-01-30T13:34:29.140Z,11.93
2023-01-30T13:37:01.321Z,56.80
2023-01-30T13:39:36.197Z,58.63
2023-01-30T13:42:17.573Z,12.63
2023-01-30T13:44:45.855Z,7.13
2023-01-30T13:47:27.701Z,34.53
2023-01-30T13:50:20.642Z,15.43
2023-01-30T13:52:54.829Z,14.80
2023-01-30T13:55:29.377Z,19.87
2023-01-30T13:58:03.786Z,15.87
2023-01-30T14:00:32.554Z,15.13
2023-01-30T14:03:25.206Z,21.73
2023-01-30T14:06:04.618Z,18.63
2023-01-30T14:08:39.803Z,19.77
2023-01-30T14:11:29.006Z,6.40
2023-01-30T14:14:02.761Z,35.20
2023-01-30T14:16:45.526Z,4.67
2023-01-30T14:19:36.480Z,6.47
2023-01-30T14:22:18.211Z,3.83
2023-01-30T14:24:45.790Z,3.90
2023-01-30T14:27:31.932Z,4.87
2023-01-30T14:29:59.526Z,5.33
2023-01-30T14:32:39.798Z,4.13
2023-01-30T14:35:28.753Z,4.20
2023-01-30T14:38:19.154Z,4.90
2023-01-30T14:41:06.705Z,31.57
2023-01-30T14:43:39.914Z,17.83
2023-01-30T14:46:27.188Z,6.17
2023-01-30T14:49:00.907Z,15.13
2023-01-30T14:51:35.069Z,8.83
2023-01-30T14:54:10.063Z,4.30
2023-01-30T14:56:44.258Z,3.93
2023-01-30T14:59:22.795Z,8.10
2023-01-30T15:02:22.396Z,4.60
2023-01-30T15:04:57.199Z,17.00
2023-01-30T15:07:30.618Z,9.93
2023-01-30T15:10:01.861Z,8.17
2023-01-30T15:12:50.565Z,7.43
2023-01-30T15:15:25.963Z,3.40
2023-01-30T15:18:18.114Z,4.37
2023-01-30T15:21:05.708Z,4.27
2023-01-30T15:24:05.371Z,7.30
2023-01-30T15:26:46.155Z,5.20
2023-01-30T15:29:53.637Z,3.33
2023-01-30T15:32:22.712Z,3.93
2023-01-30T15:34:52.145Z,3.57
2023-01-30T15:37:37.000Z,4.57
2023-01-30T15:40:22.511Z,3.70
2023-01-30T15:42:52.373Z,4.10
2023-01-30T15:45:29.755Z,4.97
2023-01-30T15:48:11.686Z,3.77
2023-01-30T15:50:39.507Z,4.63
2023-01-30T15:53:15.201Z,4.07
2023-01-30T15:55:45.617Z,7.20
2023-01-30T15:58:17.022Z,6.13
2023-01-30T16:00:47.490Z,6.00
2023-01-30T16:03:19.118Z,6.27
2023-01-30T16:05:50.893Z,5.20
2023-01-30T16:08:23.875Z,6.87
2023-01-30T16:10:53.402Z,9.57
2023-01-30T16:13:23.209Z,3.77
2023-01-30T16:15:57.642Z,5.67
2023-01-30T16:18:32.257Z,6.53
2023-01-30T16:21:04.596Z,4.00
2023-01-30T16:23:36.426Z,3.53
2023-01-30T16:26:08.432Z,4.87
2023-01-30T16:28:36.491Z,4.43
2023-01-30T16:31:06.610Z,3.20
2023-01-30T16:33:37.031Z,5.23
2023-01-30T16:36:06.648Z,4.60
2023-01-30T16:38:38.665Z,2.70
2023-01-30T16:41:07.578Z,4.40
2023-01-30T16:43:35.399Z,2.70
2023-01-30T16:46:46.029Z,42.17
2023-01-30T16:49:18.920Z,4.10
2023-01-30T16:51:47.163Z,3.80
2023-01-30T16:54:21.861Z,3.30
2023-01-30T16:56:54.590Z,4.07
2023-01-30T16:59:28.073Z,5.10
2023-01-30T17:01:57.080Z,3.77
2023-01-30T17:04:26.941Z,5.97
2023-01-30T17:06:57.380Z,3.60
2023-01-30T17:09:45.886Z,5.87
2023-01-30T17:12:38.416Z,3.63
2023-01-30T17:15:29.922Z,4.33
2023-01-30T17:17:57.603Z,5.27
2023-01-30T17:20:28.737Z,4.23
2023-01-30T17:23:02.107Z,4.47
2023-01-30T17:25:35.708Z,6.73
2023-01-30T17:28:06.050Z,3.60
2023-01-30T17:30:33.553Z,5.33
2023-01-30T17:33:01.139Z,4.93
2023-01-30T17:35:28.727Z,3.97
2023-01-30T17:38:04.778Z,6.93
2023-01-30T17:40:35.112Z,4.73
2023-01-30T17:43:03.939Z,8.00
2023-01-30T17:45:31.554Z,5.33
2023-01-30T17:47:59.015Z,5.63
2023-01-30T17:50:28.321Z,3.00
2023-01-30T17:52:55.823Z,4.97
2023-01-30T17:55:23.531Z,8.30
2023-01-30T17:57:51.037Z,6.07
2023-01-30T18:00:22.545Z,3.43
2023-01-30T18:02:50.452Z,2.70
2023-01-30T18:05:18.011Z,7.90
2023-01-30T18:07:45.538Z,4.63
2023-01-30T18:10:15.290Z,4.83
2023-01-30T18:12:42.906Z,4.70
2023-01-30T18:15:13.289Z,8.80
2023-01-30T18:17:47.153Z,4.47
2023-01-30T18:20:17.192Z,3.30
2023-01-30T18:22:44.870Z,8.50
2023-01-30T18:25:13.844Z,22.00
2023-01-30T18:27:43.711Z,7.57
2023-01-30T18:30:12.899Z,3.83
2023-01-30T18:32:51.982Z,7.10
2023-01-30T18:35:20.243Z,5.10
2023-01-30T18:37:47.726Z,4.10
2023-01-30T18:40:15.402Z,4.27
2023-01-30T18:42:42.913Z,4.87
2023-01-30T18:45:10.918Z,4.67
2023-01-30T18:47:38.368Z,5.67
2023-01-30T18:50:07.876Z,5.13
2023-01-30T18:52:35.335Z,5.83
2023-01-30T18:55:03.049Z,8.77
2023-01-30T18:57:30.537Z,4.90
2023-01-30T18:59:57.991Z,5.47
2023-01-30T19:02:25.474Z,5.67
2023-01-30T19:04:52.998Z,9.20
2023-01-30T19:07:21.797Z,6.47
2023-01-30T19:09:49.287Z,6.13
2023-01-30T19:12:34.676Z,5.87
2023-01-30T19:15:03.350Z,3.20
2023-01-30T19:17:30.989Z,4.63
2023-01-30T19:19:59.882Z,18.10
2023-01-30T19:22:28.861Z,4.97
2023-01-30T19:24:56.331Z,5.27
2023-01-30T19:27:23.774Z,6.43
2023-01-30T19:29:51.247Z,5.97
2023-01-30T19:32:18.711Z,4.13
2023-01-30T19:34:46.213Z,4.73
2023-01-30T19:37:13.665Z,5.77
2023-01-30T19:39:42.451Z,7.17
2023-01-30T19:42:09.928Z,5.73
2023-01-30T19:44:37.725Z,6.47
2023-01-30T19:47:05.276Z,10.93
2023-01-30T19:49:35.679Z,3.67
2023-01-30T19:52:03.537Z,5.90
2023-01-30T19:54:31.256Z,7.70
2023-01-30T19:57:00.177Z,25.80
2023-01-30T19:59:27.677Z,5.40
2023-01-30T20:01:55.227Z,4.60
2023-01-30T20:04:23.498Z,6.60
2023-01-30T20:06:51.007Z,12.03
2023-01-30T20:09:19.149Z,4.20
2023-01-30T20:11:46.633Z,3.37
2023-01-30T20:14:15.459Z,5.40
2023-01-30T20:16:42.913Z,8.23
2023-01-30T20:19:14.346Z,4.50
2023-01-30T20:21:41.950Z,5.03
2023-01-30T20:24:11.968Z,5.57
2023-01-30T20:26:40.300Z,3.20
2023-01-30T20:29:09.317Z,7.33
2023-01-30T20:31:39.478Z,4.73
2023-01-30T20:34:09.331Z,3.87
2023-01-30T20:36:36.799Z,4.77
2023-01-30T20:39:06.417Z,5.60
2023-01-30T20:41:36.542Z,6.63
2023-01-30T20:44:05.366Z,7.77
2023-01-30T20:46:38.742Z,4.37
2023-01-30T20:49:08.789Z,4.50
2023-01-30T20:51:36.244Z,4.30
2023-01-30T20:54:05.601Z,12.07
2023-01-30T20:56:34.890Z,5.93
2023-01-30T20:59:02.530Z,7.83
2023-01-30T21:01:30.368Z,5.60
2023-01-30T21:03:58.043Z,9.27
2023-01-30T21:06:37.364Z,6.03
2023-01-30T21:09:15.217Z,4.73
2023-01-30T21:11:42.743Z,9.83
2023-01-30T21:14:10.260Z,12.13
2023-01-30T21:16:38.584Z,8.93
2023-01-30T21:19:08.493Z,17.33
2023-01-30T21:21:40.137Z,4.87
2023-01-30T21:24:09.298Z,30.60
2023-01-30T21:26:39.309Z,9.20
2023-01-30T21:29:08.297Z,7.13
2023-01-30T21:31:37.698Z,10.63
2023-01-30T21:34:05.928Z,7.30
2023-01-30T21:36:33.603Z,8.53
2023-01-30T21:39:20.393Z,5.60
2023-01-30T21:42:05.520Z,6.03
2023-01-30T21:44:37.064Z,7.47
2023-01-30T21:47:05.317Z,10.80
2023-01-30T21:49:33.795Z,5.33
2023-01-30T21:52:01.282Z,10.93
2023-01-30T21:54:30.141Z,10.07
2023-01-30T21:56:57.640Z,4.70
2023-01-30T21:59:25.188Z,12.60
2023-01-30T22:01:52.653Z,8.10
2023-01-30T22:04:20.104Z,6.20
2023-01-30T22:06:47.538Z,25.27
2023-01-30T22:09:16.163Z,7.27
2023-01-30T22:11:46.085Z,10.40
2023-01-30T22:14:14.582Z,12.73
2023-01-30T22:16:42.827Z,6.50
2023-01-30T22:19:11.479Z,10.63
2023-01-30T22:21:40.597Z,6.97
2023-01-30T22:24:11.573Z,8.90
2023-01-30T22:26:39.608Z,17.23
2023-01-30T22:29:08.673Z,6.97
2023-01-30T22:31:40.395Z,7.87
2023-01-30T22:34:08.882Z,7.90
2023-01-30T22:36:37.476Z,5.40
2023-01-30T22:39:05.988Z,9.07
2023-01-30T22:41:36.261Z,12.77
2023-01-30T22:44:05.631Z,35.63
2023-01-30T22:46:36.425Z,17.30
2023-01-30T22:49:06.268Z,24.47
2023-01-30T22:51:36.159Z,10.50
2023-01-30T22:54:05.666Z,20.37
2023-01-30T22:56:38.347Z,11.93
2023-01-30T22:59:07.166Z,5.57
2023-01-30T23:01:38.226Z,13.67
2023-01-30T23:04:07.643Z,8.53
2023-01-30T23:06:36.794Z,15.37
2023-01-30T23:09:06.141Z,12.97
2023-01-30T23:11:35.780Z,12.27
2023-01-30T23:14:07.518Z,7.20
2023-01-30T23:16:37.925Z,19.60
2023-01-30T23:19:05.432Z,5.37
2023-01-30T23:21:37.922Z,11.50
2023-01-30T23:24:08.232Z,16.37
2023-01-30T23:26:38.132Z,7.73
2023-01-30T23:29:08.405Z,9.27
2023-01-30T23:31:38.036Z,4.70
2023-01-30T23:34:07.593Z,13.03
2023-01-30T23:36:35.493Z,9.63
2023-01-30T23:39:02.934Z,16.13
2023-01-30T23:41:32.207Z,8.10
2023-01-30T23:44:00.905Z,7.53
2023-01-30T23:46:31.955Z,16.43
2023-01-30T23:49:02.515Z,7.33
2023-01-30T23:51:32.210Z,6.10
2023-01-30T23:54:00.232Z,16.13
2023-01-30T23:56:30.049Z,6.00
2023-01-30T23:58:57.803Z,7.30
